sensor_id;sensor_type;location;lat;lon;timestamp;P1;durP1;ratioP1;P2;durP2;ratioP2
1004;SDS011;491;53.480;10.174;2022-08-19T00:00:11;7.37;;;3.70;;
1004;SDS011;491;53.480;10.174;2022-08-19T00:02:39;5.37;;;3.57;;
1004;SDS011;491;53.480;10.174;2022-08-19T00:05:07;4.57;;;3.90;;
1004;SDS011;491;53.480;10.174;2022-08-19T00:07:33;4.50;;;2.73;;
1004;SDS011;491;53.480;10.174;2022-08-19T00:09:59;4.80;;;2.80;;
1004;SDS011;491;53.480;10.174;2022-08-19T00:12:24;4.37;;;3.20;;
1004;SDS011;491;53.480;10.174;2022-08-19T00:14:50;4.17;;;3.53;;
1004;SDS011;491;53.480;10.174;2022-08-19T00:17:15;4.97;;;4.10;;
1004;SDS011;491;53.480;10.174;2022-08-19T00:19:41;6.30;;;4.13;;
1004;SDS011;491;53.480;10.174;2022-08-19T00:22:06;4.63;;;3.63;;
1004;SDS011;491;53.480;10.174;2022-08-19T00:24:33;4.20;;;3.60;;
1004;SDS011;491;53.480;10.174;2022-08-19T00:27:00;5.50;;;4.50;;
1004;SDS011;491;53.480;10.174;2022-08-19T00:29:27;4.60;;;3.40;;
1004;SDS011;491;53.480;10.174;2022-08-19T00:31:53;5.87;;;4.30;;
1004;SDS011;491;53.480;10.174;2022-08-19T00:34:21;6.13;;;4.57;;
1004;SDS011;491;53.480;10.174;2022-08-19T00:36:47;6.47;;;4.20;;
1004;SDS011;491;53.480;10.174;2022-08-19T00:39:16;9.17;;;6.07;;
1004;SDS011;491;53.480;10.174;2022-08-19T00:41:42;8.43;;;6.07;;
1004;SDS011;491;53.480;10.174;2022-08-19T00:44:14;8.40;;;5.30;;
1004;SDS011;491;53.480;10.174;2022-08-19T00:46:46;10.33;;;6.67;;
1004;SDS011;491;53.480;10.174;2022-08-19T00:51:48;8.23;;;5.40;;
1004;SDS011;491;53.480;10.174;2022-08-19T00:54:18;7.67;;;5.97;;
1004;SDS011;491;53.480;10.174;2022-08-19T00:56:45;7.60;;;5.80;;
1004;SDS011;491;53.480;10.174;2022-08-19T00:59:11;9.80;;;7.00;;
1004;SDS011;491;53.480;10.174;2022-08-19T01:01:38;7.67;;;6.33;;
1004;SDS011;491;53.480;10.174;2022-08-19T01:04:05;10.97;;;6.00;;
1004;SDS011;491;53.480;10.174;2022-08-19T01:06:31;9.47;;;5.80;;
1004;SDS011;491;53.480;10.174;2022-08-19T01:08:58;6.93;;;4.97;;
1004;SDS011;491;53.480;10.174;2022-08-19T01:11:25;10.20;;;7.03;;
1004;SDS011;491;53.480;10.174;2022-08-19T01:13:52;8.17;;;7.33;;
1004;SDS011;491;53.480;10.174;2022-08-19T01:16:19;11.23;;;7.90;;
1004;SDS011;491;53.480;10.174;2022-08-19T01:18:48;8.60;;;6.33;;
1004;SDS011;491;53.480;10.174;2022-08-19T01:21:34;9.70;;;7.90;;
1004;SDS011;491;53.480;10.174;2022-08-19T01:24:07;9.20;;;6.30;;
1004;SDS011;491;53.480;10.174;2022-08-19T01:26:34;9.10;;;6.00;;
1004;SDS011;491;53.480;10.174;2022-08-19T01:29:04;9.20;;;6.50;;
1004;SDS011;491;53.480;10.174;2022-08-19T01:31:32;8.10;;;6.30;;
1004;SDS011;491;53.480;10.174;2022-08-19T01:33:59;8.50;;;5.93;;
1004;SDS011;491;53.480;10.174;2022-08-19T01:36:45;11.63;;;8.50;;
1004;SDS011;491;53.480;10.174;2022-08-19T01:39:20;8.03;;;5.87;;
1004;SDS011;491;53.480;10.174;2022-08-19T01:41:48;8.60;;;6.70;;
1004;SDS011;491;53.480;10.174;2022-08-19T01:44:14;12.00;;;7.50;;
1004;SDS011;491;53.480;10.174;2022-08-19T01:46:41;13.47;;;7.67;;
1004;SDS011;491;53.480;10.174;2022-08-19T01:49:08;9.43;;;7.00;;
1004;SDS011;491;53.480;10.174;2022-08-19T01:51:35;9.70;;;7.20;;
1004;SDS011;491;53.480;10.174;2022-08-19T01:54:01;11.20;;;7.60;;
1004;SDS011;491;53.480;10.174;2022-08-19T01:56:26;11.90;;;6.90;;
1004;SDS011;491;53.480;10.174;2022-08-19T01:58:56;11.13;;;6.93;;
1004;SDS011;491;53.480;10.174;2022-08-19T02:01:25;9.37;;;6.93;;
1004;SDS011;491;53.480;10.174;2022-08-19T02:03:51;11.60;;;7.43;;
1004;SDS011;491;53.480;10.174;2022-08-19T02:06:18;12.37;;;8.30;;
1004;SDS011;491;53.480;10.174;2022-08-19T02:08:43;11.53;;;8.50;;
1004;SDS011;491;53.480;10.174;2022-08-19T02:11:17;14.60;;;9.73;;
1004;SDS011;491;53.480;10.174;2022-08-19T02:13:47;12.33;;;7.40;;
1004;SDS011;491;53.480;10.174;2022-08-19T02:16:14;13.83;;;8.30;;
1004;SDS011;491;53.480;10.174;2022-08-19T02:18:41;11.90;;;9.20;;
1004;SDS011;491;53.480;10.174;2022-08-19T02:21:06;13.73;;;8.00;;
1004;SDS011;491;53.480;10.174;2022-08-19T02:23:32;12.13;;;8.80;;
1004;SDS011;491;53.480;10.174;2022-08-19T02:25:57;10.60;;;7.10;;
1004;SDS011;491;53.480;10.174;2022-08-19T02:28:23;12.17;;;9.27;;
1004;SDS011;491;53.480;10.174;2022-08-19T02:30:48;9.27;;;8.10;;
1004;SDS011;491;53.480;10.174;2022-08-19T02:33:14;11.13;;;7.50;;
1004;SDS011;491;53.480;10.174;2022-08-19T02:35:41;10.67;;;7.93;;
1004;SDS011;491;53.480;10.174;2022-08-19T02:38:08;11.43;;;8.13;;
1004;SDS011;491;53.480;10.174;2022-08-19T02:41:00;14.00;;;9.13;;
1004;SDS011;491;53.480;10.174;2022-08-19T02:43:28;11.93;;;7.43;;
1004;SDS011;491;53.480;10.174;2022-08-19T02:45:56;8.37;;;7.00;;
1004;SDS011;491;53.480;10.174;2022-08-19T02:48:25;11.63;;;8.53;;
1004;SDS011;491;53.480;10.174;2022-08-19T02:50:51;10.27;;;8.13;;
1004;SDS011;491;53.480;10.174;2022-08-19T02:53:20;9.20;;;6.97;;
1004;SDS011;491;53.480;10.174;2022-08-19T02:55:51;9.87;;;7.43;;
1004;SDS011;491;53.480;10.174;2022-08-19T02:58:17;8.27;;;6.93;;
1004;SDS011;491;53.480;10.174;2022-08-19T03:00:44;9.47;;;6.47;;
1004;SDS011;491;53.480;10.174;2022-08-19T03:03:12;10.67;;;6.50;;
1004;SDS011;491;53.480;10.174;2022-08-19T03:05:38;9.20;;;7.23;;
1004;SDS011;491;53.480;10.174;2022-08-19T03:08:04;8.47;;;6.70;;
1004;SDS011;491;53.480;10.174;2022-08-19T03:10:30;7.13;;;6.40;;
1004;SDS011;491;53.480;10.174;2022-08-19T03:12:57;11.03;;;6.53;;
1004;SDS011;491;53.480;10.174;2022-08-19T03:15:22;10.33;;;7.17;;
1004;SDS011;491;53.480;10.174;2022-08-19T03:17:48;9.50;;;7.20;;
1004;SDS011;491;53.480;10.174;2022-08-19T03:20:16;8.03;;;6.70;;
1004;SDS011;491;53.480;10.174;2022-08-19T03:22:42;8.13;;;6.50;;
1004;SDS011;491;53.480;10.174;2022-08-19T03:25:07;9.20;;;6.17;;
1004;SDS011;491;53.480;10.174;2022-08-19T03:27:33;8.63;;;6.30;;
1004;SDS011;491;53.480;10.174;2022-08-19T03:29:58;11.53;;;6.77;;
1004;SDS011;491;53.480;10.174;2022-08-19T03:32:24;8.60;;;5.90;;
1004;SDS011;491;53.480;10.174;2022-08-19T03:34:49;9.03;;;7.27;;
1004;SDS011;491;53.480;10.174;2022-08-19T03:37:15;12.10;;;8.10;;
1004;SDS011;491;53.480;10.174;2022-08-19T03:39:41;8.30;;;5.73;;
1004;SDS011;491;53.480;10.174;2022-08-19T03:42:07;10.37;;;6.80;;
1004;SDS011;491;53.480;10.174;2022-08-19T03:44:37;8.33;;;6.40;;
1004;SDS011;491;53.480;10.174;2022-08-19T03:47:03;9.57;;;6.47;;
1004;SDS011;491;53.480;10.174;2022-08-19T03:49:29;10.53;;;7.50;;
1004;SDS011;491;53.480;10.174;2022-08-19T03:51:58;10.10;;;7.00;;
1004;SDS011;491;53.480;10.174;2022-08-19T03:54:27;8.97;;;6.70;;
1004;SDS011;491;53.480;10.174;2022-08-19T03:56:54;11.63;;;7.17;;
1004;SDS011;491;53.480;10.174;2022-08-19T03:59:27;8.30;;;6.53;;
1004;SDS011;491;53.480;10.174;2022-08-19T04:01:55;10.00;;;7.70;;
1004;SDS011;491;53.480;10.174;2022-08-19T04:04:22;9.27;;;6.40;;
1004;SDS011;491;53.480;10.174;2022-08-19T04:06:49;10.30;;;5.87;;
1004;SDS011;491;53.480;10.174;2022-08-19T04:09:16;15.03;;;7.00;;
1004;SDS011;491;53.480;10.174;2022-08-19T04:11:52;14.40;;;8.33;;
1004;SDS011;491;53.480;10.174;2022-08-19T04:14:20;10.93;;;7.33;;
1004;SDS011;491;53.480;10.174;2022-08-19T04:16:48;17.40;;;9.10;;
1004;SDS011;491;53.480;10.174;2022-08-19T04:19:21;16.10;;;9.77;;
1004;SDS011;491;53.480;10.174;2022-08-19T04:21:48;11.87;;;8.77;;
1004;SDS011;491;53.480;10.174;2022-08-19T04:24:15;12.73;;;9.00;;
1004;SDS011;491;53.480;10.174;2022-08-19T04:26:41;12.37;;;9.70;;
1004;SDS011;491;53.480;10.174;2022-08-19T04:29:08;16.80;;;9.27;;
1004;SDS011;491;53.480;10.174;2022-08-19T04:31:35;14.50;;;8.50;;
1004;SDS011;491;53.480;10.174;2022-08-19T04:34:02;14.57;;;8.83;;
1004;SDS011;491;53.480;10.174;2022-08-19T04:36:35;12.97;;;7.77;;
1004;SDS011;491;53.480;10.174;2022-08-19T04:39:03;11.17;;;6.80;;
1004;SDS011;491;53.480;10.174;2022-08-19T04:41:32;11.23;;;7.30;;
1004;SDS011;491;53.480;10.174;2022-08-19T04:44:16;13.53;;;8.07;;
1004;SDS011;491;53.480;10.174;2022-08-19T04:46:43;12.73;;;7.20;;
1004;SDS011;491;53.480;10.174;2022-08-19T04:49:09;14.80;;;8.10;;
1004;SDS011;491;53.480;10.174;2022-08-19T04:51:34;11.07;;;8.23;;
1004;SDS011;491;53.480;10.174;2022-08-19T04:54:02;11.10;;;7.17;;
1004;SDS011;491;53.480;10.174;2022-08-19T04:56:28;11.80;;;8.27;;
1004;SDS011;491;53.480;10.174;2022-08-19T04:58:54;12.17;;;7.30;;
1004;SDS011;491;53.480;10.174;2022-08-19T05:01:22;10.90;;;7.70;;
1004;SDS011;491;53.480;10.174;2022-08-19T05:03:51;12.53;;;7.73;;
1004;SDS011;491;53.480;10.174;2022-08-19T05:06:18;11.80;;;7.07;;
1004;SDS011;491;53.480;10.174;2022-08-19T05:08:47;13.17;;;7.83;;
1004;SDS011;491;53.480;10.174;2022-08-19T05:11:18;10.00;;;7.43;;
1004;SDS011;491;53.480;10.174;2022-08-19T05:13:47;10.27;;;7.23;;
1004;SDS011;491;53.480;10.174;2022-08-19T05:16:14;12.37;;;7.00;;
1004;SDS011;491;53.480;10.174;2022-08-19T05:18:43;11.77;;;7.93;;
1004;SDS011;491;53.480;10.174;2022-08-19T05:21:28;12.13;;;8.70;;
1004;SDS011;491;53.480;10.174;2022-08-19T05:24:13;14.00;;;7.50;;
1004;SDS011;491;53.480;10.174;2022-08-19T05:26:40;16.83;;;9.13;;
1004;SDS011;491;53.480;10.174;2022-08-19T05:29:08;16.60;;;8.03;;
1004;SDS011;491;53.480;10.174;2022-08-19T05:31:34;11.10;;;8.47;;
1004;SDS011;491;53.480;10.174;2022-08-19T05:34:01;12.80;;;9.47;;
1004;SDS011;491;53.480;10.174;2022-08-19T05:36:29;15.33;;;8.30;;
1004;SDS011;491;53.480;10.174;2022-08-19T05:39:00;13.80;;;9.30;;
1004;SDS011;491;53.480;10.174;2022-08-19T05:41:27;15.67;;;9.57;;
1004;SDS011;491;53.480;10.174;2022-08-19T05:43:54;16.00;;;9.33;;
1004;SDS011;491;53.480;10.174;2022-08-19T05:46:20;15.63;;;9.23;;
1004;SDS011;491;53.480;10.174;2022-08-19T05:48:47;12.40;;;8.90;;
1004;SDS011;491;53.480;10.174;2022-08-19T05:51:13;17.00;;;11.37;;
1004;SDS011;491;53.480;10.174;2022-08-19T05:53:39;15.43;;;10.30;;
1004;SDS011;491;53.480;10.174;2022-08-19T05:56:05;15.07;;;9.53;;
1004;SDS011;491;53.480;10.174;2022-08-19T05:58:32;14.10;;;9.20;;
1004;SDS011;491;53.480;10.174;2022-08-19T06:00:58;13.03;;;8.53;;
1004;SDS011;491;53.480;10.174;2022-08-19T06:03:29;15.40;;;10.70;;
1004;SDS011;491;53.480;10.174;2022-08-19T06:05:55;14.13;;;9.80;;
1004;SDS011;491;53.480;10.174;2022-08-19T06:08:21;12.73;;;9.20;;
1004;SDS011;491;53.480;10.174;2022-08-19T06:10:46;14.83;;;9.90;;
1004;SDS011;491;53.480;10.174;2022-08-19T06:13:12;16.90;;;10.03;;
1004;SDS011;491;53.480;10.174;2022-08-19T06:15:37;12.43;;;8.47;;
1004;SDS011;491;53.480;10.174;2022-08-19T06:18:03;15.13;;;11.27;;
1004;SDS011;491;53.480;10.174;2022-08-19T06:20:28;16.63;;;10.23;;
1004;SDS011;491;53.480;10.174;2022-08-19T06:22:54;12.70;;;9.30;;
1004;SDS011;491;53.480;10.174;2022-08-19T06:25:19;16.67;;;9.83;;
1004;SDS011;491;53.480;10.174;2022-08-19T06:27:45;12.30;;;8.63;;
1004;SDS011;491;53.480;10.174;2022-08-19T06:30:11;18.80;;;11.07;;
1004;SDS011;491;53.480;10.174;2022-08-19T06:32:37;14.83;;;9.93;;
1004;SDS011;491;53.480;10.174;2022-08-19T06:35:03;14.13;;;9.83;;
1004;SDS011;491;53.480;10.174;2022-08-19T06:37:29;16.40;;;11.10;;
1004;SDS011;491;53.480;10.174;2022-08-19T06:39:54;14.27;;;10.83;;
1004;SDS011;491;53.480;10.174;2022-08-19T06:42:20;17.63;;;10.10;;
1004;SDS011;491;53.480;10.174;2022-08-19T06:44:48;16.43;;;9.50;;
1004;SDS011;491;53.480;10.174;2022-08-19T06:47:18;14.60;;;9.60;;
1004;SDS011;491;53.480;10.174;2022-08-19T06:49:45;18.57;;;10.33;;
1004;SDS011;491;53.480;10.174;2022-08-19T06:52:11;17.07;;;10.70;;
1004;SDS011;491;53.480;10.174;2022-08-19T06:54:38;14.77;;;9.77;;
1004;SDS011;491;53.480;10.174;2022-08-19T06:57:04;12.57;;;9.17;;
1004;SDS011;491;53.480;10.174;2022-08-19T06:59:31;14.37;;;8.57;;
1004;SDS011;491;53.480;10.174;2022-08-19T07:01:58;15.10;;;10.83;;
1004;SDS011;491;53.480;10.174;2022-08-19T07:04:27;15.20;;;10.77;;
1004;SDS011;491;53.480;10.174;2022-08-19T07:07:00;14.57;;;8.87;;
1004;SDS011;491;53.480;10.174;2022-08-19T07:09:30;15.40;;;9.43;;
1004;SDS011;491;53.480;10.174;2022-08-19T07:11:56;16.77;;;9.37;;
1004;SDS011;491;53.480;10.174;2022-08-19T07:14:23;16.83;;;10.80;;
1004;SDS011;491;53.480;10.174;2022-08-19T07:16:51;10.17;;;7.07;;
1004;SDS011;491;53.480;10.174;2022-08-19T07:19:20;15.70;;;9.77;;
1004;SDS011;491;53.480;10.174;2022-08-19T07:21:48;14.20;;;9.30;;
1004;SDS011;491;53.480;10.174;2022-08-19T07:24:17;15.80;;;8.50;;
1004;SDS011;491;53.480;10.174;2022-08-19T07:26:44;12.03;;;8.60;;
1004;SDS011;491;53.480;10.174;2022-08-19T07:29:10;15.87;;;9.27;;
1004;SDS011;491;53.480;10.174;2022-08-19T07:31:37;11.70;;;8.80;;
1004;SDS011;491;53.480;10.174;2022-08-19T07:34:06;11.83;;;8.57;;
1004;SDS011;491;53.480;10.174;2022-08-19T07:36:34;13.80;;;9.60;;
1004;SDS011;491;53.480;10.174;2022-08-19T07:39:03;12.03;;;9.07;;
1004;SDS011;491;53.480;10.174;2022-08-19T07:41:32;16.80;;;9.60;;
1004;SDS011;491;53.480;10.174;2022-08-19T07:43:59;11.40;;;8.03;;
1004;SDS011;491;53.480;10.174;2022-08-19T07:46:29;19.97;;;11.33;;
1004;SDS011;491;53.480;10.174;2022-08-19T07:48:56;17.17;;;11.43;;
1004;SDS011;491;53.480;10.174;2022-08-19T07:51:21;17.63;;;10.67;;
1004;SDS011;491;53.480;10.174;2022-08-19T07:53:48;16.47;;;10.70;;
1004;SDS011;491;53.480;10.174;2022-08-19T07:56:15;13.27;;;8.93;;
1004;SDS011;491;53.480;10.174;2022-08-19T07:58:44;13.30;;;9.80;;
1004;SDS011;491;53.480;10.174;2022-08-19T08:01:13;14.93;;;11.63;;
1004;SDS011;491;53.480;10.174;2022-08-19T08:03:42;14.27;;;9.67;;
1004;SDS011;491;53.480;10.174;2022-08-19T08:06:26;15.10;;;9.90;;
1004;SDS011;491;53.480;10.174;2022-08-19T08:09:11;11.80;;;9.10;;
1004;SDS011;491;53.480;10.174;2022-08-19T08:11:40;11.60;;;9.17;;
1004;SDS011;491;53.480;10.174;2022-08-19T08:14:13;13.30;;;7.97;;
1004;SDS011;491;53.480;10.174;2022-08-19T08:16:41;12.77;;;8.30;;
1004;SDS011;491;53.480;10.174;2022-08-19T08:19:09;11.30;;;7.80;;
1004;SDS011;491;53.480;10.174;2022-08-19T08:21:34;11.10;;;7.50;;
1004;SDS011;491;53.480;10.174;2022-08-19T08:24:00;11.50;;;8.53;;
1004;SDS011;491;53.480;10.174;2022-08-19T08:26:26;14.20;;;8.23;;
1004;SDS011;491;53.480;10.174;2022-08-19T08:28:52;11.87;;;8.90;;
1004;SDS011;491;53.480;10.174;2022-08-19T08:31:18;15.43;;;9.70;;
1004;SDS011;491;53.480;10.174;2022-08-19T08:33:45;9.30;;;6.83;;
1004;SDS011;491;53.480;10.174;2022-08-19T08:36:11;12.80;;;8.93;;
1004;SDS011;491;53.480;10.174;2022-08-19T08:38:38;11.00;;;7.80;;
1004;SDS011;491;53.480;10.174;2022-08-19T08:41:09;10.17;;;8.23;;
1004;SDS011;491;53.480;10.174;2022-08-19T08:44:13;9.13;;;7.00;;
1004;SDS011;491;53.480;10.174;2022-08-19T08:46:48;9.87;;;7.30;;
1004;SDS011;491;53.480;10.174;2022-08-19T08:49:35;7.33;;;5.50;;
1004;SDS011;491;53.480;10.174;2022-08-19T08:52:20;8.53;;;5.40;;
1004;SDS011;491;53.480;10.174;2022-08-19T08:54:49;11.33;;;7.40;;
1004;SDS011;491;53.480;10.174;2022-08-19T08:58:04;9.10;;;5.93;;
1004;SDS011;491;53.480;10.174;2022-08-19T09:03:03;13.57;;;7.17;;
1004;SDS011;491;53.480;10.174;2022-08-19T09:05:57;12.87;;;7.77;;
1004;SDS011;491;53.480;10.174;2022-08-19T09:11:14;9.53;;;6.37;;
1004;SDS011;491;53.480;10.174;2022-08-19T09:16:37;9.33;;;6.67;;
1004;SDS011;491;53.480;10.174;2022-08-19T09:19:05;11.57;;;6.70;;
1004;SDS011;491;53.480;10.174;2022-08-19T09:21:35;10.93;;;7.13;;
1004;SDS011;491;53.480;10.174;2022-08-19T09:24:01;11.17;;;7.07;;
1004;SDS011;491;53.480;10.174;2022-08-19T09:26:28;12.43;;;7.23;;
1004;SDS011;491;53.480;10.174;2022-08-19T09:28:55;14.27;;;8.93;;
1004;SDS011;491;53.480;10.174;2022-08-19T09:31:22;11.33;;;6.33;;
1004;SDS011;491;53.480;10.174;2022-08-19T09:33:50;11.20;;;7.80;;
1004;SDS011;491;53.480;10.174;2022-08-19T09:36:17;8.57;;;6.70;;
1004;SDS011;491;53.480;10.174;2022-08-19T09:38:44;12.47;;;8.07;;
1004;SDS011;491;53.480;10.174;2022-08-19T09:41:12;14.83;;;9.13;;
1004;SDS011;491;53.480;10.174;2022-08-19T09:43:41;12.90;;;8.50;;
1004;SDS011;491;53.480;10.174;2022-08-19T09:46:09;12.53;;;8.23;;
1004;SDS011;491;53.480;10.174;2022-08-19T09:48:35;12.67;;;8.90;;
1004;SDS011;491;53.480;10.174;2022-08-19T09:51:05;12.73;;;7.60;;
1004;SDS011;491;53.480;10.174;2022-08-19T09:53:36;12.67;;;8.03;;
1004;SDS011;491;53.480;10.174;2022-08-19T09:56:03;9.10;;;6.60;;
1004;SDS011;491;53.480;10.174;2022-08-19T09:58:31;11.73;;;7.57;;
1004;SDS011;491;53.480;10.174;2022-08-19T10:00:57;11.40;;;8.60;;
1004;SDS011;491;53.480;10.174;2022-08-19T10:03:25;16.03;;;9.43;;
1004;SDS011;491;53.480;10.174;2022-08-19T10:05:52;11.47;;;7.37;;
1004;SDS011;491;53.480;10.174;2022-08-19T10:08:23;13.70;;;7.90;;
1004;SDS011;491;53.480;10.174;2022-08-19T10:10:55;12.60;;;8.47;;
1004;SDS011;491;53.480;10.174;2022-08-19T10:13:23;11.43;;;8.57;;
1004;SDS011;491;53.480;10.174;2022-08-19T10:15:51;13.23;;;8.80;;
1004;SDS011;491;53.480;10.174;2022-08-19T10:18:19;10.13;;;6.83;;
1004;SDS011;491;53.480;10.174;2022-08-19T10:20:47;13.37;;;8.87;;
1004;SDS011;491;53.480;10.174;2022-08-19T10:23:13;12.47;;;8.27;;
1004;SDS011;491;53.480;10.174;2022-08-19T10:25:40;13.87;;;7.37;;
1004;SDS011;491;53.480;10.174;2022-08-19T10:28:05;11.73;;;7.67;;
1004;SDS011;491;53.480;10.174;2022-08-19T10:30:32;10.13;;;7.63;;
1004;SDS011;491;53.480;10.174;2022-08-19T10:32:58;11.77;;;7.70;;
1004;SDS011;491;53.480;10.174;2022-08-19T10:35:24;11.03;;;8.10;;
1004;SDS011;491;53.480;10.174;2022-08-19T10:37:52;9.40;;;7.30;;
1004;SDS011;491;53.480;10.174;2022-08-19T10:40:18;10.93;;;7.00;;
1004;SDS011;491;53.480;10.174;2022-08-19T10:42:43;11.60;;;7.10;;
1004;SDS011;491;53.480;10.174;2022-08-19T10:45:09;9.43;;;6.67;;
1004;SDS011;491;53.480;10.174;2022-08-19T10:47:35;11.50;;;7.00;;
1004;SDS011;491;53.480;10.174;2022-08-19T10:50:03;10.27;;;7.60;;
1004;SDS011;491;53.480;10.174;2022-08-19T10:52:49;10.10;;;6.57;;
1004;SDS011;491;53.480;10.174;2022-08-19T10:55:15;11.33;;;7.60;;
1004;SDS011;491;53.480;10.174;2022-08-19T10:58:00;10.57;;;6.63;;
1004;SDS011;491;53.480;10.174;2022-08-19T11:00:28;9.77;;;6.90;;
1004;SDS011;491;53.480;10.174;2022-08-19T11:03:14;10.60;;;6.40;;
1004;SDS011;491;53.480;10.174;2022-08-19T11:05:39;11.10;;;6.90;;
1004;SDS011;491;53.480;10.174;2022-08-19T11:08:06;8.73;;;6.37;;
1004;SDS011;491;53.480;10.174;2022-08-19T11:10:36;10.53;;;5.83;;
1004;SDS011;491;53.480;10.174;2022-08-19T11:13:02;8.27;;;5.57;;
1004;SDS011;491;53.480;10.174;2022-08-19T11:15:28;9.50;;;6.90;;
1004;SDS011;491;53.480;10.174;2022-08-19T11:17:54;10.30;;;7.37;;
1004;SDS011;491;53.480;10.174;2022-08-19T11:20:20;9.90;;;5.93;;
1004;SDS011;491;53.480;10.174;2022-08-19T11:22:48;9.20;;;7.37;;
1004;SDS011;491;53.480;10.174;2022-08-19T11:25:13;10.00;;;5.80;;
1004;SDS011;491;53.480;10.174;2022-08-19T11:27:41;10.40;;;7.00;;
1004;SDS011;491;53.480;10.174;2022-08-19T11:30:08;10.10;;;8.97;;
1004;SDS011;491;53.480;10.174;2022-08-19T11:32:35;10.47;;;6.20;;
1004;SDS011;491;53.480;10.174;2022-08-19T11:35:01;10.53;;;5.97;;
1004;SDS011;491;53.480;10.174;2022-08-19T11:37:26;10.20;;;7.00;;
1004;SDS011;491;53.480;10.174;2022-08-19T11:39:52;13.03;;;7.53;;
1004;SDS011;491;53.480;10.174;2022-08-19T11:42:18;9.63;;;7.30;;
1004;SDS011;491;53.480;10.174;2022-08-19T11:45:02;11.70;;;7.77;;
1004;SDS011;491;53.480;10.174;2022-08-19T11:47:29;10.20;;;7.20;;
1004;SDS011;491;53.480;10.174;2022-08-19T11:49:55;11.00;;;6.53;;
1004;SDS011;491;53.480;10.174;2022-08-19T11:52:21;9.77;;;8.13;;
1004;SDS011;491;53.480;10.174;2022-08-19T11:54:46;10.20;;;8.77;;
1004;SDS011;491;53.480;10.174;2022-08-19T11:57:12;13.50;;;8.40;;
1004;SDS011;491;53.480;10.174;2022-08-19T11:59:39;14.07;;;7.27;;
1004;SDS011;491;53.480;10.174;2022-08-19T12:02:05;10.13;;;7.53;;
1004;SDS011;491;53.480;10.174;2022-08-19T12:04:30;9.40;;;7.10;;
1004;SDS011;491;53.480;10.174;2022-08-19T12:06:56;11.13;;;7.77;;
1004;SDS011;491;53.480;10.174;2022-08-19T12:09:21;8.30;;;7.37;;
1004;SDS011;491;53.480;10.174;2022-08-19T12:11:47;9.37;;;7.57;;
1004;SDS011;491;53.480;10.174;2022-08-19T12:14:13;9.60;;;7.57;;
1004;SDS011;491;53.480;10.174;2022-08-19T12:16:38;11.03;;;8.27;;
1004;SDS011;491;53.480;10.174;2022-08-19T12:19:05;9.40;;;7.87;;
1004;SDS011;491;53.480;10.174;2022-08-19T12:21:31;13.77;;;8.50;;
1004;SDS011;491;53.480;10.174;2022-08-19T12:23:59;11.80;;;7.40;;
1004;SDS011;491;53.480;10.174;2022-08-19T12:26:27;7.40;;;6.07;;
1004;SDS011;491;53.480;10.174;2022-08-19T12:28:53;9.07;;;7.07;;
1004;SDS011;491;53.480;10.174;2022-08-19T12:31:19;9.27;;;7.83;;
1004;SDS011;491;53.480;10.174;2022-08-19T12:33:45;10.67;;;8.07;;
1004;SDS011;491;53.480;10.174;2022-08-19T12:36:12;9.50;;;7.40;;
1004;SDS011;491;53.480;10.174;2022-08-19T12:38:39;10.07;;;6.87;;
1004;SDS011;491;53.480;10.174;2022-08-19T12:41:05;9.90;;;6.10;;
1004;SDS011;491;53.480;10.174;2022-08-19T12:43:33;10.13;;;7.90;;
1004;SDS011;491;53.480;10.174;2022-08-19T12:45:59;8.23;;;4.90;;
1004;SDS011;491;53.480;10.174;2022-08-19T12:48:25;9.37;;;6.57;;
1004;SDS011;491;53.480;10.174;2022-08-19T12:50:50;10.40;;;6.30;;
1004;SDS011;491;53.480;10.174;2022-08-19T12:53:16;9.67;;;6.90;;
1004;SDS011;491;53.480;10.174;2022-08-19T12:55:42;10.93;;;6.70;;
1004;SDS011;491;53.480;10.174;2022-08-19T12:58:08;9.27;;;6.63;;
1004;SDS011;491;53.480;10.174;2022-08-19T13:00:34;9.33;;;7.10;;
1004;SDS011;491;53.480;10.174;2022-08-19T13:03:00;8.23;;;5.73;;
1004;SDS011;491;53.480;10.174;2022-08-19T13:05:27;7.63;;;6.60;;
1004;SDS011;491;53.480;10.174;2022-08-19T13:07:55;6.00;;;5.07;;
1004;SDS011;491;53.480;10.174;2022-08-19T13:10:32;6.23;;;5.40;;
1004;SDS011;491;53.480;10.174;2022-08-19T13:13:03;7.30;;;5.00;;
1004;SDS011;491;53.480;10.174;2022-08-19T13:15:32;7.13;;;5.10;;
1004;SDS011;491;53.480;10.174;2022-08-19T13:18:00;8.60;;;6.60;;
1004;SDS011;491;53.480;10.174;2022-08-19T13:20:25;6.30;;;5.57;;
1004;SDS011;491;53.480;10.174;2022-08-19T13:22:51;7.47;;;4.83;;
1004;SDS011;491;53.480;10.174;2022-08-19T13:25:17;6.80;;;5.77;;
1004;SDS011;491;53.480;10.174;2022-08-19T13:27:44;7.37;;;5.67;;
1004;SDS011;491;53.480;10.174;2022-08-19T13:30:12;7.10;;;5.07;;
1004;SDS011;491;53.480;10.174;2022-08-19T13:32:58;8.70;;;5.20;;
1004;SDS011;491;53.480;10.174;2022-08-19T13:35:37;7.60;;;5.30;;
1004;SDS011;491;53.480;10.174;2022-08-19T13:38:03;5.70;;;4.40;;
1004;SDS011;491;53.480;10.174;2022-08-19T13:40:30;6.60;;;5.30;;
1004;SDS011;491;53.480;10.174;2022-08-19T13:42:58;6.03;;;5.43;;
1004;SDS011;491;53.480;10.174;2022-08-19T13:45:25;5.33;;;4.83;;
1004;SDS011;491;53.480;10.174;2022-08-19T13:47:53;6.53;;;5.83;;
1004;SDS011;491;53.480;10.174;2022-08-19T13:50:22;7.13;;;6.00;;
1004;SDS011;491;53.480;10.174;2022-08-19T13:52:50;6.10;;;5.13;;
1004;SDS011;491;53.480;10.174;2022-08-19T13:55:16;5.63;;;5.00;;
1004;SDS011;491;53.480;10.174;2022-08-19T13:57:42;5.20;;;4.37;;
1004;SDS011;491;53.480;10.174;2022-08-19T14:00:13;5.30;;;4.57;;
1004;SDS011;491;53.480;10.174;2022-08-19T14:02:42;6.10;;;5.17;;
1004;SDS011;491;53.480;10.174;2022-08-19T14:05:09;6.20;;;5.23;;
1004;SDS011;491;53.480;10.174;2022-08-19T14:07:37;4.63;;;4.10;;
1004;SDS011;491;53.480;10.174;2022-08-19T14:10:04;6.40;;;5.13;;
1004;SDS011;491;53.480;10.174;2022-08-19T14:12:40;6.30;;;4.53;;
1004;SDS011;491;53.480;10.174;2022-08-19T14:15:06;5.27;;;4.77;;
1004;SDS011;491;53.480;10.174;2022-08-19T14:17:33;6.37;;;5.77;;
1004;SDS011;491;53.480;10.174;2022-08-19T14:20:00;5.97;;;5.37;;
1004;SDS011;491;53.480;10.174;2022-08-19T14:22:31;7.83;;;5.90;;
1004;SDS011;491;53.480;10.174;2022-08-19T14:24:57;6.57;;;5.40;;
1004;SDS011;491;53.480;10.174;2022-08-19T14:27:23;6.77;;;5.70;;
1004;SDS011;491;53.480;10.174;2022-08-19T14:29:50;5.93;;;5.23;;
1004;SDS011;491;53.480;10.174;2022-08-19T14:32:16;6.70;;;5.27;;
1004;SDS011;491;53.480;10.174;2022-08-19T14:34:41;8.43;;;5.87;;
1004;SDS011;491;53.480;10.174;2022-08-19T14:37:07;7.40;;;5.23;;
1004;SDS011;491;53.480;10.174;2022-08-19T14:39:34;7.17;;;5.50;;
1004;SDS011;491;53.480;10.174;2022-08-19T14:41:59;8.67;;;6.07;;
1004;SDS011;491;53.480;10.174;2022-08-19T14:44:25;5.90;;;5.30;;
1004;SDS011;491;53.480;10.174;2022-08-19T14:46:51;5.30;;;4.70;;
1004;SDS011;491;53.480;10.174;2022-08-19T14:49:16;9.80;;;6.13;;
1004;SDS011;491;53.480;10.174;2022-08-19T14:51:43;5.90;;;5.00;;
1004;SDS011;491;53.480;10.174;2022-08-19T14:54:10;5.97;;;5.30;;
1004;SDS011;491;53.480;10.174;2022-08-19T14:56:36;7.17;;;5.67;;
1004;SDS011;491;53.480;10.174;2022-08-19T14:59:01;6.10;;;4.87;;
1004;SDS011;491;53.480;10.174;2022-08-19T15:01:27;6.47;;;5.83;;
1004;SDS011;491;53.480;10.174;2022-08-19T15:03:54;8.00;;;5.60;;
1004;SDS011;491;53.480;10.174;2022-08-19T15:06:20;5.10;;;4.60;;
1004;SDS011;491;53.480;10.174;2022-08-19T15:08:47;6.93;;;5.27;;
1004;SDS011;491;53.480;10.174;2022-08-19T15:11:15;5.97;;;4.63;;
1004;SDS011;491;53.480;10.174;2022-08-19T15:13:44;6.80;;;5.10;;
1004;SDS011;491;53.480;10.174;2022-08-19T15:16:11;7.37;;;5.50;;
1004;SDS011;491;53.480;10.174;2022-08-19T15:18:42;4.80;;;3.50;;
1004;SDS011;491;53.480;10.174;2022-08-19T15:21:09;4.83;;;4.30;;
1004;SDS011;491;53.480;10.174;2022-08-19T15:23:42;7.00;;;5.27;;